createdAt,value
2023-02-12T00:00:58.045Z,59.78
2023-02-12T00:03:28.496Z,60.30
2023-02-12T00:06:03.691Z,60.08
2023-02-12T00:08:34.138Z,71.63
2023-02-12T00:11:13.039Z,82.78
2023-02-12T00:13:44.084Z,66.55
2023-02-12T00:16:15.733Z,67.97
2023-02-12T00:18:46.609Z,70.07
2023-02-12T00:21:18.983Z,86.50
2023-02-12T00:23:49.166Z,75.93
2023-02-12T00:26:20.950Z,75.78
2023-02-12T00:28:53.779Z,77.47
2023-02-12T00:31:26.690Z,85.72
2023-02-12T00:33:59.541Z,69.43
2023-02-12T00:36:31.350Z,80.05
2023-02-12T00:39:02.707Z,92.95
2023-02-12T00:41:33.622Z,78.43
2023-02-12T00:44:03.713Z,76.22
2023-02-12T00:46:33.900Z,79.05
2023-02-12T00:49:04.433Z,85.43
2023-02-12T00:51:34.918Z,89.95
2023-02-12T00:54:05.594Z,98.15
2023-02-12T00:56:35.686Z,100.65
2023-02-12T00:59:06.207Z,100.68
2023-02-12T01:01:38.392Z,97.40
2023-02-12T01:04:08.906Z,93.47
2023-02-12T01:06:39.114Z,86.10
2023-02-12T01:09:09.596Z,87.18
2023-02-12T01:11:40.421Z,85.95
2023-02-12T01:14:10.661Z,82.40
2023-02-12T01:16:42.145Z,73.80
2023-02-12T01:19:13.970Z,71.38
2023-02-12T01:21:44.293Z,81.75
2023-02-12T01:24:15.264Z,72.18
2023-02-12T01:26:45.750Z,80.45
2023-02-12T01:29:16.236Z,77.75
2023-02-12T01:31:46.501Z,66.68
2023-02-12T01:34:17.119Z,70.70
2023-02-12T01:36:47.899Z,72.68
2023-02-12T01:39:18.613Z,71.75
2023-02-12T01:41:49.061Z,68.55
2023-02-12T01:44:32.303Z,76.35
2023-02-12T01:47:03.754Z,69.22
2023-02-12T01:49:42.798Z,61.33
2023-02-12T01:52:18.865Z,72.63
2023-02-12T01:54:51.447Z,68.75
2023-02-12T01:57:22.529Z,65.03
2023-02-12T01:59:56.063Z,60.92
2023-02-12T02:02:26.865Z,63.30
2023-02-12T02:05:00.397Z,63.17
2023-02-12T02:07:31.261Z,61.88
2023-02-12T02:10:02.004Z,69.15
2023-02-12T02:12:53.017Z,68.75
2023-02-12T02:15:23.422Z,65.80
2023-02-12T02:18:13.291Z,67.80
2023-02-12T02:21:02.971Z,59.03
2023-02-12T02:23:53.392Z,61.88
2023-02-12T02:26:43.309Z,61.25
2023-02-12T02:29:32.983Z,65.30
2023-02-12T02:32:13.020Z,56.75
2023-02-12T02:35:03.506Z,54.92
2023-02-12T02:37:47.752Z,57.92
2023-02-12T02:40:22.638Z,52.90
2023-02-12T02:43:04.284Z,59.97
2023-02-12T02:45:40.996Z,56.88
2023-02-12T02:48:20.747Z,55.65
2023-02-12T02:50:53.243Z,59.78
2023-02-12T02:53:28.231Z,57.40
2023-02-12T02:55:59.583Z,52.30
2023-02-12T02:58:34.407Z,52.63
2023-02-12T03:01:10.330Z,58.03
2023-02-12T03:03:51.928Z,58.15
2023-02-12T03:06:41.817Z,55.80
2023-02-12T03:09:16.231Z,55.83
2023-02-12T03:11:47.580Z,56.15
2023-02-12T03:14:20.616Z,52.47
2023-02-12T03:17:10.323Z,49.38
2023-02-12T03:19:45.032Z,48.72
2023-02-12T03:22:17.011Z,55.55
2023-02-12T03:24:49.429Z,51.38
2023-02-12T03:27:22.959Z,54.40
2023-02-12T03:29:53.076Z,50.22
2023-02-12T03:32:43.416Z,45.47
2023-02-12T03:35:23.787Z,47.47
2023-02-12T03:38:13.652Z,43.72
2023-02-12T03:40:47.286Z,42.00
2023-02-12T03:43:23.624Z,47.80
2023-02-12T03:46:04.731Z,39.47
2023-02-12T03:48:44.309Z,42.90
2023-02-12T03:51:21.150Z,68.93
2023-02-12T03:53:52.340Z,48.40
2023-02-12T03:56:25.632Z,35.92
2023-02-12T03:58:56.212Z,41.35
2023-02-12T04:01:26.667Z,60.80
2023-02-12T04:03:58.317Z,38.13
2023-02-12T04:06:31.113Z,43.45
2023-02-12T04:09:04.879Z,40.38
2023-02-12T04:11:55.436Z,36.67
2023-02-12T04:14:48.304Z,36.55
2023-02-12T04:17:39.976Z,33.58
2023-02-12T04:20:15.674Z,36.67
2023-02-12T04:23:05.985Z,34.47
2023-02-12T04:25:50.438Z,33.55
2023-02-12T04:28:40.424Z,29.77
2023-02-12T04:31:30.218Z,34.00
2023-02-12T04:34:10.288Z,38.30
2023-02-12T04:36:44.488Z,33.45
2023-02-12T04:39:20.082Z,33.80
2023-02-12T04:41:50.280Z,32.28
2023-02-12T04:44:23.593Z,36.13
2023-02-12T04:46:54.619Z,33.40
2023-02-12T04:49:25.167Z,35.92
2023-02-12T04:51:55.643Z,36.00
2023-02-12T04:54:26.166Z,32.65
2023-02-12T04:56:56.685Z,33.42
2023-02-12T04:59:27.231Z,33.10
2023-02-12T05:01:58.321Z,34.38
2023-02-12T05:04:28.773Z,32.22
2023-02-12T05:06:59.266Z,35.42
2023-02-12T05:09:29.577Z,33.78
2023-02-12T05:11:59.754Z,32.47
2023-02-12T05:14:31.276Z,29.80
2023-02-12T05:17:02.370Z,31.63
2023-02-12T05:19:33.178Z,31.17
2023-02-12T05:22:03.852Z,27.75
2023-02-12T05:24:34.202Z,27.88
2023-02-12T05:27:04.905Z,26.77
2023-02-12T05:29:35.338Z,26.63
2023-02-12T05:32:05.812Z,27.65
2023-02-12T05:34:36.123Z,25.80
2023-02-12T05:37:06.438Z,25.05
2023-02-12T05:39:36.252Z,26.58
2023-02-12T05:42:06.668Z,23.27
2023-02-12T05:44:36.939Z,24.10
2023-02-12T05:47:07.611Z,22.27
2023-02-12T05:49:37.783Z,25.25
2023-02-12T05:52:08.140Z,24.25
2023-02-12T05:54:39.001Z,23.83
2023-02-12T05:57:09.867Z,22.35
2023-02-12T05:59:41.220Z,24.75
2023-02-12T06:02:11.581Z,21.33
2023-02-12T06:04:41.694Z,25.02
2023-02-12T06:07:12.042Z,24.23
2023-02-12T06:09:42.962Z,25.15
2023-02-12T06:12:13.489Z,21.90
2023-02-12T06:14:44.217Z,24.35
2023-02-12T06:17:14.743Z,22.27
2023-02-12T06:19:45.243Z,21.05
2023-02-12T06:22:15.876Z,20.05
2023-02-12T06:24:46.437Z,20.75
2023-02-12T06:27:16.792Z,25.05
2023-02-12T06:29:47.471Z,21.17
2023-02-12T06:32:18.147Z,22.52
2023-02-12T06:34:48.430Z,23.77
2023-02-12T06:37:18.728Z,21.65
2023-02-12T06:39:48.975Z,22.08
2023-02-12T06:42:19.691Z,23.63
2023-02-12T06:44:52.581Z,21.08
2023-02-12T06:47:23.510Z,20.45
2023-02-12T06:49:54.005Z,19.38
2023-02-12T06:52:24.355Z,22.40
2023-02-12T06:54:54.941Z,19.90
2023-02-12T06:57:25.376Z,22.80
2023-02-12T06:59:55.509Z,22.65
2023-02-12T07:02:25.964Z,23.33
2023-02-12T07:04:56.457Z,20.75
2023-02-12T07:07:26.846Z,16.98
2023-02-12T07:09:57.011Z,18.30
2023-02-12T07:12:27.335Z,19.17
2023-02-12T07:14:57.856Z,20.23
2023-02-12T07:17:28.287Z,19.45
2023-02-12T07:19:58.794Z,19.48
2023-02-12T07:22:29.015Z,16.67
2023-02-12T07:25:00.190Z,22.65
2023-02-12T07:27:30.977Z,17.95
2023-02-12T07:30:01.505Z,17.58
2023-02-12T07:32:31.659Z,17.50
2023-02-12T07:35:02.103Z,26.73
2023-02-12T07:37:33.150Z,16.90
2023-02-12T07:40:04.490Z,19.45
2023-02-12T07:42:34.994Z,18.38
2023-02-12T07:45:09.022Z,19.27
2023-02-12T07:47:40.285Z,15.68
2023-02-12T07:50:11.000Z,18.55
2023-02-12T07:52:41.231Z,20.05
2023-02-12T07:55:11.679Z,18.02
2023-02-12T07:57:41.903Z,25.75
2023-02-12T08:00:13.200Z,17.30
2023-02-12T08:02:43.495Z,16.02
2023-02-12T08:05:14.075Z,16.85
2023-02-12T08:07:44.492Z,17.92
2023-02-12T08:10:14.761Z,16.73
2023-02-12T08:12:45.542Z,16.08
2023-02-12T08:15:15.904Z,17.25
2023-02-12T08:17:46.177Z,18.48
2023-02-12T08:20:17.169Z,16.50
2023-02-12T08:22:47.671Z,15.50
2023-02-12T08:25:18.665Z,18.15
2023-02-12T08:27:48.876Z,16.80
2023-02-12T08:30:19.484Z,16.10
2023-02-12T08:32:52.112Z,16.42
2023-02-12T08:35:22.625Z,17.70
2023-02-12T08:37:54.104Z,15.70
2023-02-12T08:40:24.978Z,19.67
2023-02-12T08:42:55.977Z,15.77
2023-02-12T08:45:26.638Z,16.23
2023-02-12T08:47:57.876Z,22.35
2023-02-12T08:50:28.382Z,19.17
2023-02-12T08:52:59.058Z,22.42
2023-02-12T08:55:29.804Z,20.52
2023-02-12T08:58:00.051Z,24.45
2023-02-12T09:00:32.724Z,16.40
2023-02-12T09:03:03.242Z,14.63
2023-02-12T09:05:33.910Z,14.27
2023-02-12T09:08:04.100Z,19.40
2023-02-12T09:10:34.962Z,14.90
2023-02-12T09:13:05.272Z,13.85
2023-02-12T09:15:39.007Z,12.90
2023-02-12T09:18:10.519Z,14.85
2023-02-12T09:20:42.765Z,14.30
2023-02-12T09:23:16.267Z,15.52
2023-02-12T09:25:47.214Z,13.48
2023-02-12T09:28:17.636Z,17.33
2023-02-12T09:30:48.430Z,19.73
2023-02-12T09:33:18.630Z,13.23
2023-02-12T09:35:48.699Z,16.50
2023-02-12T09:38:19.745Z,15.50
2023-02-12T09:41:09.698Z,14.68
2023-02-12T09:43:51.337Z,14.90
2023-02-12T09:46:25.757Z,13.93
2023-02-12T09:49:15.882Z,13.82
2023-02-12T09:51:50.990Z,14.38
2023-02-12T09:54:23.135Z,13.32
2023-02-12T09:56:58.088Z,15.00
2023-02-12T09:59:35.243Z,18.02
2023-02-12T10:02:05.291Z,13.70
2023-02-12T10:04:35.664Z,18.35
2023-02-12T10:07:14.531Z,13.95
2023-02-12T10:09:59.056Z,16.75
2023-02-12T10:12:41.793Z,14.63
2023-02-12T10:15:17.502Z,12.68
2023-02-12T10:17:53.857Z,15.95
2023-02-12T10:20:41.668Z,12.90
2023-02-12T10:23:32.727Z,13.40
2023-02-12T10:26:07.708Z,16.35
2023-02-12T10:28:40.742Z,16.33
2023-02-12T10:31:16.363Z,18.05
2023-02-12T10:33:51.672Z,18.83
2023-02-12T10:36:30.614Z,27.92
2023-02-12T10:39:15.833Z,35.97
2023-02-12T10:41:47.601Z,34.03
2023-02-12T10:44:17.982Z,32.13
2023-02-12T10:46:48.509Z,23.70
2023-02-12T10:49:19.765Z,18.85
2023-02-12T10:52:09.846Z,17.15
2023-02-12T10:54:47.532Z,17.20
2023-02-12T10:57:23.289Z,17.50
2023-02-12T10:59:56.052Z,17.95
2023-02-12T11:02:28.000Z,21.75
2023-02-12T11:04:59.732Z,20.15
2023-02-12T11:07:30.745Z,21.52
2023-02-12T11:10:01.532Z,19.55
2023-02-12T11:12:34.290Z,17.85
2023-02-12T11:15:09.542Z,18.40
2023-02-12T11:17:41.348Z,16.73
2023-02-12T11:20:26.884Z,19.00
2023-02-12T11:23:04.560Z,21.10
2023-02-12T11:25:37.604Z,20.38
2023-02-12T11:28:21.763Z,31.17
2023-02-12T11:30:59.605Z,28.60
2023-02-12T11:33:47.825Z,32.45
2023-02-12T11:36:20.884Z,24.33
2023-02-12T11:38:53.102Z,27.63
2023-02-12T11:41:36.079Z,31.92
2023-02-12T11:44:25.878Z,28.98
2023-02-12T11:47:05.371Z,37.50
2023-02-12T11:49:37.559Z,27.63
2023-02-12T11:52:09.280Z,31.42
2023-02-12T11:54:49.205Z,36.30
2023-02-12T11:57:38.814Z,38.88
2023-02-12T12:00:29.838Z,43.40
2023-02-12T12:03:22.078Z,38.95
2023-02-12T12:05:58.799Z,43.63
2023-02-12T12:08:31.534Z,41.10
2023-02-12T12:11:07.020Z,89.20
2023-02-12T12:13:41.296Z,47.40
2023-02-12T12:16:38.676Z,45.60
2023-02-12T12:19:33.407Z,50.40
2023-02-12T12:22:07.161Z,48.67
2023-02-12T12:24:50.817Z,46.47
2023-02-12T12:27:44.535Z,54.15
2023-02-12T12:30:35.543Z,54.30
2023-02-12T12:33:08.420Z,54.45
2023-02-12T12:35:48.298Z,50.53
2023-02-12T12:38:22.966Z,54.95
2023-02-12T12:41:12.919Z,60.30
2023-02-12T12:44:02.891Z,53.72
2023-02-12T12:46:45.133Z,58.72
2023-02-12T12:49:19.914Z,52.90
2023-02-12T12:52:10.031Z,55.33
2023-02-12T12:55:00.267Z,56.63
2023-02-12T12:57:42.294Z,52.58
2023-02-12T13:00:24.307Z,64.10
2023-02-12T13:03:14.172Z,70.00
2023-02-12T13:06:03.828Z,65.18
2023-02-12T13:08:53.689Z,70.53
2023-02-12T13:11:44.070Z,75.75
2023-02-12T13:14:34.257Z,77.25
2023-02-12T13:17:16.002Z,81.30
2023-02-12T13:19:55.812Z,88.78
2023-02-12T13:22:31.845Z,99.53
2023-02-12T13:25:09.617Z,77.70
2023-02-12T13:27:45.033Z,71.03
2023-02-12T13:30:28.961Z,74.60
2023-02-12T13:33:08.971Z,69.40
2023-02-12T13:35:41.499Z,67.50
2023-02-12T13:38:13.825Z,64.80
2023-02-12T13:40:44.525Z,56.97
2023-02-12T13:43:29.656Z,59.70
2023-02-12T13:46:09.491Z,61.88
2023-02-12T13:48:52.470Z,63.17
2023-02-12T13:51:42.164Z,54.72
2023-02-12T13:54:32.304Z,56.63
2023-02-12T13:57:04.274Z,55.20
2023-02-12T13:59:42.757Z,58.90
2023-02-12T14:02:18.882Z,59.30
2023-02-12T14:05:01.485Z,62.05
2023-02-12T14:07:51.182Z,56.53
2023-02-12T14:10:26.523Z,57.40
2023-02-12T14:12:58.905Z,61.38
2023-02-12T14:15:49.232Z,289.98
2023-02-12T14:18:31.017Z,62.33
2023-02-12T14:21:20.837Z,60.55
2023-02-12T14:23:52.637Z,56.45
2023-02-12T14:26:25.111Z,59.92
2023-02-12T14:29:02.877Z,59.90
2023-02-12T14:31:38.138Z,61.90
2023-02-12T14:34:28.277Z,60.78
2023-02-12T14:37:19.356Z,65.00
2023-02-12T14:39:49.796Z,71.15
2023-02-12T14:42:39.784Z,69.85
2023-02-12T14:45:29.533Z,81.75
2023-02-12T14:48:00.110Z,92.97
2023-02-12T14:50:38.511Z,113.65
2023-02-12T14:53:28.863Z,106.13
2023-02-12T14:55:59.953Z,89.90
2023-02-12T14:58:33.967Z,82.60
2023-02-12T15:01:05.708Z,75.75
2023-02-12T15:03:44.685Z,65.72
2023-02-12T15:06:23.412Z,78.40
2023-02-12T15:08:57.486Z,89.97
2023-02-12T15:11:36.988Z,86.43
2023-02-12T15:14:26.653Z,77.28
2023-02-12T15:17:16.539Z,58.05
2023-02-12T15:19:52.191Z,62.63
2023-02-12T15:22:27.260Z,65.13
2023-02-12T15:25:17.901Z,51.65
2023-02-12T15:27:49.865Z,54.58
2023-02-12T15:30:26.302Z,56.10
2023-02-12T15:32:59.128Z,69.55
2023-02-12T15:35:31.763Z,57.15
2023-02-12T15:38:02.731Z,54.90
2023-02-12T15:40:33.500Z,54.75
2023-02-12T15:43:05.214Z,48.72
2023-02-12T15:45:36.903Z,50.67
2023-02-12T15:48:14.954Z,53.72
2023-02-12T15:51:05.412Z,51.75
2023-02-12T15:53:36.493Z,46.95
2023-02-12T15:56:07.032Z,53.63
2023-02-12T15:58:45.949Z,56.00
2023-02-12T16:01:19.850Z,90.88
2023-02-12T16:03:55.277Z,47.03
2023-02-12T16:06:26.029Z,52.00
2023-02-12T16:09:07.792Z,51.83
2023-02-12T16:11:38.776Z,47.85
2023-02-12T16:14:11.611Z,57.92
2023-02-12T16:16:46.749Z,45.28
2023-02-12T16:19:21.250Z,45.58
2023-02-12T16:21:54.225Z,51.58
2023-02-12T16:24:28.429Z,47.42
2023-02-12T16:26:59.324Z,52.88
2023-02-12T16:29:30.130Z,49.70
2023-02-12T16:32:03.638Z,47.08
2023-02-12T16:34:41.248Z,50.35
2023-02-12T16:37:32.200Z,49.38
2023-02-12T16:40:12.159Z,59.10
2023-02-12T16:42:58.490Z,177.55
2023-02-12T16:45:43.760Z,62.33
2023-02-12T16:48:32.723Z,60.05
2023-02-12T16:51:07.678Z,55.65
2023-02-12T16:53:45.004Z,63.95
2023-02-12T16:56:20.201Z,55.72
2023-02-12T16:58:52.797Z,59.92
2023-02-12T17:01:24.873Z,57.20
2023-02-12T17:03:56.205Z,55.97
2023-02-12T17:06:28.668Z,52.55
2023-02-12T17:08:59.738Z,56.70
2023-02-12T17:11:30.581Z,67.25
2023-02-12T17:14:01.104Z,65.72
2023-02-12T17:16:32.512Z,48.78
2023-02-12T17:19:04.147Z,50.28
2023-02-12T17:21:39.619Z,45.88
2023-02-12T17:24:16.418Z,48.05
2023-02-12T17:26:46.917Z,46.33
2023-02-12T17:29:17.658Z,46.17
2023-02-12T17:31:49.186Z,56.92
2023-02-12T17:34:19.653Z,52.10
2023-02-12T17:36:50.009Z,50.10
2023-02-12T17:39:20.670Z,54.25
2023-02-12T17:41:53.037Z,53.72
2023-02-12T17:44:23.124Z,60.00
2023-02-12T17:46:53.556Z,56.60
2023-02-12T17:49:24.309Z,55.03
2023-02-12T17:51:54.842Z,54.75
2023-02-12T17:54:24.699Z,52.80
2023-02-12T17:56:54.837Z,48.15
2023-02-12T17:59:25.085Z,47.15
2023-02-12T18:01:55.468Z,59.25
2023-02-12T18:04:26.100Z,47.90
2023-02-12T18:06:57.108Z,49.35
2023-02-12T18:09:27.592Z,54.70
2023-02-12T18:11:58.222Z,51.97
2023-02-12T18:14:29.102Z,52.25
2023-02-12T18:17:00.251Z,52.17
2023-02-12T18:19:31.061Z,50.85
2023-02-12T18:22:01.477Z,51.08
2023-02-12T18:24:33.235Z,51.13
2023-02-12T18:27:04.232Z,52.45
2023-02-12T18:29:34.718Z,55.70
2023-02-12T18:32:05.468Z,57.03
2023-02-12T18:34:36.264Z,56.78
2023-02-12T18:37:06.690Z,54.20
2023-02-12T18:39:37.026Z,57.17
2023-02-12T18:42:07.456Z,64.70
2023-02-12T18:44:38.566Z,63.00
2023-02-12T18:47:08.813Z,69.68
2023-02-12T18:49:39.151Z,61.78
2023-02-12T18:52:09.196Z,62.45
2023-02-12T18:54:39.710Z,69.85
2023-02-12T18:57:09.724Z,62.10
2023-02-12T18:59:39.660Z,60.45
2023-02-12T19:02:10.425Z,55.80
2023-02-12T19:04:42.472Z,61.80
2023-02-12T19:07:12.592Z,61.13
2023-02-12T19:09:43.031Z,65.22
2023-02-12T19:12:13.533Z,56.45
2023-02-12T19:14:44.322Z,58.90
2023-02-12T19:17:14.477Z,55.92
2023-02-12T19:19:45.240Z,60.25
2023-02-12T19:22:15.633Z,56.70
2023-02-12T19:24:47.188Z,66.28
2023-02-12T19:27:17.517Z,61.90
2023-02-12T19:29:47.521Z,58.58
2023-02-12T19:32:18.030Z,57.22
2023-02-12T19:34:48.046Z,59.00
2023-02-12T19:37:18.150Z,63.70
2023-02-12T19:39:48.701Z,60.33
2023-02-12T19:42:19.408Z,60.08
2023-02-12T19:44:49.824Z,64.43
2023-02-12T19:47:19.883Z,57.10
2023-02-12T19:49:49.959Z,57.92
2023-02-12T19:52:20.127Z,59.58
2023-02-12T19:54:50.183Z,58.92
2023-02-12T19:57:20.470Z,55.30
2023-02-12T19:59:50.860Z,61.30
2023-02-12T20:02:21.320Z,59.92
2023-02-12T20:04:51.438Z,60.33
2023-02-12T20:07:21.516Z,59.88
2023-02-12T20:09:53.762Z,55.50
2023-02-12T20:12:24.554Z,57.80
2023-02-12T20:14:57.313Z,57.10
2023-02-12T20:17:27.475Z,60.80
2023-02-12T20:19:57.906Z,56.78
2023-02-12T20:22:28.469Z,62.55
2023-02-12T20:24:58.877Z,60.28
2023-02-12T20:27:29.033Z,57.10
2023-02-12T20:29:59.655Z,53.72
2023-02-12T20:32:30.290Z,57.83
2023-02-12T20:35:01.033Z,60.08
2023-02-12T20:37:31.308Z,54.47
2023-02-12T20:40:02.054Z,61.88
2023-02-12T20:42:32.156Z,59.45
2023-02-12T20:45:02.636Z,63.28
2023-02-12T20:47:33.113Z,55.35
2023-02-12T20:50:03.811Z,60.10
2023-02-12T20:52:34.435Z,54.80
2023-02-12T20:55:05.118Z,60.88
2023-02-12T20:57:36.269Z,57.22
2023-02-12T21:00:07.165Z,57.55
2023-02-12T21:02:38.257Z,60.28
2023-02-12T21:05:08.756Z,61.00
2023-02-12T21:07:39.060Z,61.53
2023-02-12T21:10:10.123Z,61.72
2023-02-12T21:12:40.620Z,59.00
2023-02-12T21:15:11.783Z,60.30
2023-02-12T21:17:42.109Z,60.22
2023-02-12T21:20:12.485Z,57.00
2023-02-12T21:22:42.678Z,60.13
2023-02-12T21:25:13.091Z,59.67
2023-02-12T21:27:43.575Z,61.58
2023-02-12T21:30:14.069Z,65.40
2023-02-12T21:32:44.195Z,55.78
2023-02-12T21:35:14.689Z,60.40
2023-02-12T21:37:45.108Z,60.78
2023-02-12T21:40:15.465Z,57.97
2023-02-12T21:42:45.516Z,58.83
2023-02-12T21:45:15.961Z,60.03
2023-02-12T21:47:46.034Z,65.43
2023-02-12T21:50:16.460Z,53.72
2023-02-12T21:52:46.866Z,60.88
2023-02-12T21:55:17.008Z,56.00
2023-02-12T21:57:48.765Z,57.78
2023-02-12T22:00:19.236Z,58.70
2023-02-12T22:02:49.657Z,57.55
2023-02-12T22:05:20.227Z,57.83
2023-02-12T22:07:53.990Z,55.67
2023-02-12T22:10:24.540Z,61.97
2023-02-12T22:12:55.015Z,62.00
2023-02-12T22:15:25.287Z,63.40
2023-02-12T22:17:55.844Z,62.17
2023-02-12T22:20:26.298Z,60.83
2023-02-12T22:22:56.479Z,54.10
2023-02-12T22:25:26.957Z,58.83
2023-02-12T22:27:57.545Z,61.63
2023-02-12T22:30:27.992Z,61.35
2023-02-12T22:32:58.966Z,58.15
2023-02-12T22:35:29.784Z,61.17
2023-02-12T22:38:00.222Z,61.20
2023-02-12T22:40:31.143Z,63.67
2023-02-12T22:43:01.812Z,65.25
2023-02-12T22:45:32.276Z,61.88
2023-02-12T22:48:02.415Z,59.47
2023-02-12T22:50:32.591Z,62.88
2023-02-12T22:53:03.081Z,64.03
2023-02-12T22:55:33.521Z,68.07
2023-02-12T22:58:04.009Z,72.07
2023-02-12T23:00:34.510Z,68.57
2023-02-12T23:03:05.053Z,69.63
2023-02-12T23:05:38.713Z,70.68
2023-02-12T23:08:08.967Z,68.65
2023-02-12T23:10:39.770Z,65.78
2023-02-12T23:13:10.564Z,68.57
2023-02-12T23:15:43.908Z,62.20
2023-02-12T23:18:14.300Z,72.40
2023-02-12T23:20:44.482Z,86.50
2023-02-12T23:23:14.528Z,73.55
2023-02-12T23:25:45.071Z,101.30
2023-02-12T23:28:15.500Z,82.75
2023-02-12T23:30:45.843Z,71.03
2023-02-12T23:33:17.031Z,69.32
2023-02-12T23:35:47.761Z,62.90
2023-02-12T23:38:18.649Z,60.97
2023-02-12T23:40:50.027Z,69.82
2023-02-12T23:43:20.802Z,70.60
2023-02-12T23:45:51.152Z,68.18
2023-02-12T23:48:21.437Z,76.38
2023-02-12T23:50:51.651Z,85.18
2023-02-12T23:53:21.990Z,82.75
2023-02-12T23:55:52.908Z,99.60
2023-02-12T23:58:22.975Z,76.70
